sensor_id;sensor_type;location;lat;lon;timestamp;pressure;altitude;pressure_sealevel;temperature;humidity
39141;BME280;24875;48.436;10.298;2022-11-04T00:01:51;95337.00;;;10.62;100.00
39141;BME280;24875;48.436;10.298;2022-11-04T00:04:19;95334.00;;;10.72;100.00
39141;BME280;24875;48.436;10.298;2022-11-04T00:06:46;95346.53;;;10.70;100.00
39141;BME280;24875;48.436;10.298;2022-11-04T00:09:17;95349.38;;;10.75;100.00
39141;BME280;24875;48.436;10.298;2022-11-04T00:11:44;95356.28;;;10.76;100.00
39141;BME280;24875;48.436;10.298;2022-11-04T00:14:29;95355.47;;;10.75;100.00
39141;BME280;24875;48.436;10.298;2022-11-04T00:16:55;95355.25;;;10.77;100.00
39141;BME280;24875;48.436;10.298;2022-11-04T00:19:39;95364.22;;;10.82;100.00
39141;BME280;24875;48.436;10.298;2022-11-04T00:22:23;95358.13;;;10.82;100.00
39141;BME280;24875;48.436;10.298;2022-11-04T00:25:09;95353.06;;;10.87;100.00
39141;BME280;24875;48.436;10.298;2022-11-04T00:28:01;95351.88;;;11.02;100.00
39141;BME280;24875;48.436;10.298;2022-11-04T00:30:45;95351.06;;;10.89;100.00
39141;BME280;24875;48.436;10.298;2022-11-04T00:33:12;95355.50;;;10.88;100.00
39141;BME280;24875;48.436;10.298;2022-11-04T00:35:50;95358.34;;;10.93;100.00
39141;BME280;24875;48.436;10.298;2022-11-04T00:38:17;95371.94;;;10.96;100.00
39141;BME280;24875;48.436;10.298;2022-11-04T00:40:45;95362.81;;;11.05;100.00
39141;BME280;24875;48.436;10.298;2022-11-04T00:43:12;95363.59;;;10.93;100.00
39141;BME280;24875;48.436;10.298;2022-11-04T00:45:39;95357.13;;;11.02;100.00
39141;BME280;24875;48.436;10.298;2022-11-04T00:48:06;95347.22;;;10.97;100.00
39141;BME280;24875;48.436;10.298;2022-11-04T00:50:32;95344.16;;;10.94;100.00
39141;BME280;24875;48.436;10.298;2022-11-04T00:52:59;95347.00;;;10.99;100.00
39141;BME280;24875;48.436;10.298;2022-11-04T00:55:26;95336.88;;;11.02;100.00
39141;BME280;24875;48.436;10.298;2022-11-04T00:57:54;95353.09;;;11.12;100.00
39141;BME280;24875;48.436;10.298;2022-11-04T01:00:20;95372.94;;;11.02;100.00
39141;BME280;24875;48.436;10.298;2022-11-04T01:02:47;95369.09;;;11.04;100.00
39141;BME280;24875;48.436;10.298;2022-11-04T01:05:14;95375.00;;;11.06;100.00
39141;BME280;24875;48.436;10.298;2022-11-04T01:07:40;95382.50;;;11.09;100.00
39141;BME280;24875;48.436;10.298;2022-11-04T01:10:08;95374.38;;;11.04;100.00
39141;BME280;24875;48.436;10.298;2022-11-04T01:12:34;95375.56;;;10.95;100.00
39141;BME280;24875;48.436;10.298;2022-11-04T01:15:03;95377.22;;;11.09;100.00
39141;BME280;24875;48.436;10.298;2022-11-04T01:17:29;95382.25;;;10.92;100.00
39141;BME280;24875;48.436;10.298;2022-11-04T01:19:56;95391.19;;;10.97;100.00
39141;BME280;24875;48.436;10.298;2022-11-04T01:22:22;95386.94;;;10.90;100.00
39141;BME280;24875;48.436;10.298;2022-11-04T01:24:49;95388.75;;;10.89;100.00
39141;BME280;24875;48.436;10.298;2022-11-04T01:27:15;95397.66;;;10.94;100.00
39141;BME280;24875;48.436;10.298;2022-11-04T01:29:42;95394.03;;;10.95;100.00
39141;BME280;24875;48.436;10.298;2022-11-04T01:32:10;95404.97;;;10.93;100.00
39141;BME280;24875;48.436;10.298;2022-11-04T01:34:36;95401.72;;;10.91;100.00
39141;BME280;24875;48.436;10.298;2022-11-04T01:37:03;95395.84;;;10.89;100.00
39141;BME280;24875;48.436;10.298;2022-11-04T01:39:30;95401.72;;;10.91;100.00
39141;BME280;24875;48.436;10.298;2022-11-04T01:41:56;95390.97;;;10.86;100.00
39141;BME280;24875;48.436;10.298;2022-11-04T01:44:45;95395.66;;;11.03;100.00
39141;BME280;24875;48.436;10.298;2022-11-04T01:47:16;95391.59;;;10.88;100.00
39141;BME280;24875;48.436;10.298;2022-11-04T01:49:46;95376.56;;;10.82;100.00
39141;BME280;24875;48.436;10.298;2022-11-04T01:52:16;95391.59;;;10.88;100.00
39141;BME280;24875;48.436;10.298;2022-11-04T01:54:47;95381.44;;;10.85;100.00
39141;BME280;24875;48.436;10.298;2022-11-04T01:57:18;95375.78;;;10.88;100.00
39141;BME280;24875;48.436;10.298;2022-11-04T01:59:45;95375.75;;;10.81;100.00
39141;BME280;24875;48.436;10.298;2022-11-04T02:02:14;95373.69;;;10.77;100.00
39141;BME280;24875;48.436;10.298;2022-11-04T02:04:41;95370.91;;;10.78;100.00
39141;BME280;24875;48.436;10.298;2022-11-04T02:07:09;95370.91;;;10.78;100.00
39141;BME280;24875;48.436;10.298;2022-11-04T02:09:38;95366.00;;;10.75;100.00
39141;BME280;24875;48.436;10.298;2022-11-04T02:12:06;95368.44;;;10.77;100.00
39141;BME280;24875;48.436;10.298;2022-11-04T02:14:51;95363.16;;;10.77;100.00
39141;BME280;24875;48.436;10.298;2022-11-04T02:17:29;95366.44;;;10.85;100.00
39141;BME280;24875;48.436;10.298;2022-11-04T02:20:16;95368.06;;;10.80;100.00
39141;BME280;24875;48.436;10.298;2022-11-04T02:23:02;95364.00;;;10.84;100.00
39141;BME280;24875;48.436;10.298;2022-11-04T02:26:09;95371.28;;;10.82;100.00
39141;BME280;24875;48.436;10.298;2022-11-04T02:31:55;95361.97;;;10.86;100.00
39141;BME280;24875;48.436;10.298;2022-11-04T02:34:32;95360.75;;;10.82;100.00
39141;BME280;24875;48.436;10.298;2022-11-04T02:37:08;95359.91;;;10.68;100.00
39141;BME280;24875;48.436;10.298;2022-11-04T02:39:49;95368.84;;;10.74;100.00
39141;BME280;24875;48.436;10.298;2022-11-04T02:42:24;95367.41;;;10.71;100.00
39141;BME280;24875;48.436;10.298;2022-11-04T02:45:00;95363.97;;;10.71;100.00
39141;BME280;24875;48.436;10.298;2022-11-04T02:47:33;95371.69;;;10.72;100.00
39141;BME280;24875;48.436;10.298;2022-11-04T02:50:07;95369.84;;;10.73;100.00
39141;BME280;24875;48.436;10.298;2022-11-04T02:52:40;95365.19;;;10.75;100.00
39141;BME280;24875;48.436;10.298;2022-11-04T02:55:11;95358.72;;;10.77;100.00
39141;BME280;24875;48.436;10.298;2022-11-04T02:57:41;95357.50;;;10.73;100.00
39141;BME280;24875;48.436;10.298;2022-11-04T03:00:12;95353.84;;;10.74;100.00
39141;BME280;24875;48.436;10.298;2022-11-04T03:02:43;95350.84;;;10.84;100.00
39141;BME280;24875;48.436;10.298;2022-11-04T03:05:13;95338.06;;;10.81;100.00
39141;BME280;24875;48.436;10.298;2022-11-04T03:07:42;95342.91;;;10.77;100.00
39141;BME280;24875;48.436;10.298;2022-11-04T03:10:14;95337.03;;;10.75;100.00
39141;BME280;24875;48.436;10.298;2022-11-04T03:12:45;95336.81;;;10.77;100.00
39141;BME280;24875;48.436;10.298;2022-11-04T03:15:18;95328.53;;;10.73;100.00
39141;BME280;24875;48.436;10.298;2022-11-04T03:17:51;95335.78;;;10.65;100.00
39141;BME280;24875;48.436;10.298;2022-11-04T03:20:21;95338.19;;;10.60;100.00
39141;BME280;24875;48.436;10.298;2022-11-04T03:22:50;95336.19;;;10.55;100.00
39141;BME280;24875;48.436;10.298;2022-11-04T03:25:20;95334.34;;;10.62;100.00
39141;BME280;24875;48.436;10.298;2022-11-04T03:27:53;95334.38;;;10.69;100.00
39141;BME280;24875;48.436;10.298;2022-11-04T03:30:23;95342.47;;;10.61;100.00
39141;BME280;24875;48.436;10.298;2022-11-04T03:32:56;95350.59;;;10.66;100.00
39141;BME280;24875;48.436;10.298;2022-11-04T03:35:24;95354.63;;;10.62;100.00
39141;BME280;24875;48.436;10.298;2022-11-04T03:37:52;95362.75;;;10.60;100.00
39141;BME280;24875;48.436;10.298;2022-11-04T03:40:19;95363.13;;;10.57;100.00
39141;BME280;24875;48.436;10.298;2022-11-04T03:42:51;95352.56;;;10.57;100.00
39141;BME280;24875;48.436;10.298;2022-11-04T03:45:21;95358.28;;;10.61;100.00
39141;BME280;24875;48.436;10.298;2022-11-04T03:47:49;95364.28;;;10.48;100.00
39141;BME280;24875;48.436;10.298;2022-11-04T03:50:22;95364.34;;;10.61;100.00
39141;BME280;24875;48.436;10.298;2022-11-04T03:52:51;95372.00;;;10.50;100.00
39141;BME280;24875;48.436;10.298;2022-11-04T03:55:18;95383.56;;;10.49;100.00
39141;BME280;24875;48.436;10.298;2022-11-04T03:57:49;95388.03;;;10.55;100.00
39141;BME280;24875;48.436;10.298;2022-11-04T04:00:19;95382.31;;;10.45;100.00
39141;BME280;24875;48.436;10.298;2022-11-04T04:03:01;95377.66;;;10.47;100.00
39141;BME280;24875;48.436;10.298;2022-11-04T04:05:38;95365.91;;;10.43;100.00
39141;BME280;24875;48.436;10.298;2022-11-04T04:08:13;95366.88;;;10.35;100.00
39141;BME280;24875;48.436;10.298;2022-11-04T04:10:47;95379.63;;;10.32;100.00
39141;BME280;24875;48.436;10.298;2022-11-04T04:13:22;95381.66;;;10.30;100.00
39141;BME280;24875;48.436;10.298;2022-11-04T04:15:57;95371.47;;;10.21;100.00
39141;BME280;24875;48.436;10.298;2022-11-04T04:18:29;95370.25;;;10.23;100.00
39141;BME280;24875;48.436;10.298;2022-11-04T04:21:02;95378.78;;;10.25;100.00
39141;BME280;24875;48.436;10.298;2022-11-04T04:23:31;95384.63;;;10.21;100.00
39141;BME280;24875;48.436;10.298;2022-11-04T04:26:19;95383.66;;;10.28;100.00
39141;BME280;24875;48.436;10.298;2022-11-04T04:29:06;95387.22;;;10.14;100.00
39141;BME280;24875;48.436;10.298;2022-11-04T04:31:35;95390.91;;;10.13;100.00
39141;BME280;24875;48.436;10.298;2022-11-04T04:34:21;95388.81;;;10.09;100.00
39141;BME280;24875;48.436;10.298;2022-11-04T04:36:53;95398.16;;;10.11;100.00
39141;BME280;24875;48.436;10.298;2022-11-04T04:39:24;95386.63;;;10.12;100.00
39141;BME280;24875;48.436;10.298;2022-11-04T04:42:11;95375.22;;;10.05;100.00
39141;BME280;24875;48.436;10.298;2022-11-04T04:44:55;95371.91;;;9.90;100.00
39141;BME280;24875;48.436;10.298;2022-11-04T04:47:32;95377.88;;;10.05;100.00
39141;BME280;24875;48.436;10.298;2022-11-04T04:50:01;95364.72;;;10.05;100.00
39141;BME280;24875;48.436;10.298;2022-11-04T04:52:30;95368.75;;;10.01;100.00
39141;BME280;24875;48.436;10.298;2022-11-04T04:54:57;95377.63;;;10.00;100.00
39141;BME280;24875;48.436;10.298;2022-11-04T04:57:23;95381.41;;;9.91;100.00
39141;BME280;24875;48.436;10.298;2022-11-04T04:59:50;95383.59;;;9.81;100.00
39141;BME280;24875;48.436;10.298;2022-11-04T05:02:17;95392.75;;;9.92;100.00
39141;BME280;24875;48.436;10.298;2022-11-04T05:04:43;95399.22;;;9.89;100.00
39141;BME280;24875;48.436;10.298;2022-11-04T05:07:10;95387.25;;;9.87;100.00
39141;BME280;24875;48.436;10.298;2022-11-04T05:09:38;95363.13;;;9.83;100.00
39141;BME280;24875;48.436;10.298;2022-11-04T05:12:05;95344.34;;;9.86;100.00
39141;BME280;24875;48.436;10.298;2022-11-04T05:14:31;95342.72;;;9.85;100.00
39141;BME280;24875;48.436;10.298;2022-11-04T05:16:58;95359.88;;;9.75;100.00
39141;BME280;24875;48.436;10.298;2022-11-04T05:19:24;95387.66;;;9.84;100.00
39141;BME280;24875;48.436;10.298;2022-11-04T05:21:51;95393.88;;;9.76;100.00
39141;BME280;24875;48.436;10.298;2022-11-04T05:24:18;95396.25;;;9.71;100.00
39141;BME280;24875;48.436;10.298;2022-11-04T05:26:45;95369.63;;;9.87;100.00
39141;BME280;24875;48.436;10.298;2022-11-04T05:29:12;95362.91;;;9.78;100.00
39141;BME280;24875;48.436;10.298;2022-11-04T05:31:39;95365.78;;;9.83;100.00
39141;BME280;24875;48.436;10.298;2022-11-04T05:34:05;95382.56;;;9.82;100.00
39141;BME280;24875;48.436;10.298;2022-11-04T05:36:32;95386.56;;;9.78;100.00
39141;BME280;24875;48.436;10.298;2022-11-04T05:38:58;95394.88;;;9.75;100.00
39141;BME280;24875;48.436;10.298;2022-11-04T05:41:25;95412.25;;;9.70;100.00
39141;BME280;24875;48.436;10.298;2022-11-04T05:43:55;95416.97;;;9.81;100.00
39141;BME280;24875;48.436;10.298;2022-11-04T05:46:22;95425.44;;;9.76;100.00
39141;BME280;24875;48.436;10.298;2022-11-04T05:48:49;95427.81;;;9.71;100.00
39141;BME280;24875;48.436;10.298;2022-11-04T05:51:17;95441.63;;;9.80;100.00
39141;BME280;24875;48.436;10.298;2022-11-04T05:53:45;95444.22;;;9.73;100.00
39141;BME280;24875;48.436;10.298;2022-11-04T05:56:11;95446.25;;;9.71;100.00
39141;BME280;24875;48.436;10.298;2022-11-04T05:58:38;95444.34;;;9.66;100.00
39141;BME280;24875;48.436;10.298;2022-11-04T06:01:29;95442.38;;;9.68;100.00
39141;BME280;24875;48.436;10.298;2022-11-04T06:03:56;95431.34;;;9.58;100.00
39141;BME280;24875;48.436;10.298;2022-11-04T06:06:24;95424.91;;;9.60;100.00
39141;BME280;24875;48.436;10.298;2022-11-04T06:08:52;95417.81;;;9.61;100.00
39141;BME280;24875;48.436;10.298;2022-11-04T06:11:19;95418.44;;;9.63;100.00
39141;BME280;24875;48.436;10.298;2022-11-04T06:13:46;95414.56;;;9.59;100.00
39141;BME280;24875;48.436;10.298;2022-11-04T06:16:14;95422.31;;;9.67;100.00
39141;BME280;24875;48.436;10.298;2022-11-04T06:18:41;95422.00;;;10.03;100.00
39141;BME280;24875;48.436;10.298;2022-11-04T06:21:09;95410.69;;;10.43;100.00
39141;BME280;24875;48.436;10.298;2022-11-04T06:23:36;95405.06;;;10.12;100.00
39141;BME280;24875;48.436;10.298;2022-11-04T06:26:02;95396.19;;;9.92;100.00
39141;BME280;24875;48.436;10.298;2022-11-04T06:28:29;95408.09;;;9.88;100.00
39141;BME280;24875;48.436;10.298;2022-11-04T06:30:56;95410.41;;;9.70;100.00
39141;BME280;24875;48.436;10.298;2022-11-04T06:33:24;95394.78;;;9.63;100.00
39141;BME280;24875;48.436;10.298;2022-11-04T06:35:51;95384.44;;;9.61;100.00
39141;BME280;24875;48.436;10.298;2022-11-04T06:38:18;95382.00;;;9.60;100.00
39141;BME280;24875;48.436;10.298;2022-11-04T06:40:44;95394.94;;;9.55;100.00
39141;BME280;24875;48.436;10.298;2022-11-04T06:43:10;95403.28;;;9.65;100.00
39141;BME280;24875;48.436;10.298;2022-11-04T06:45:37;95390.72;;;9.60;100.00
39141;BME280;24875;48.436;10.298;2022-11-04T06:48:04;95388.09;;;9.60;100.00
39141;BME280;24875;48.436;10.298;2022-11-04T06:50:32;95375.38;;;9.64;100.00
39141;BME280;24875;48.436;10.298;2022-11-04T06:52:59;95363.94;;;9.50;100.00
39141;BME280;24875;48.436;10.298;2022-11-04T06:55:25;95361.34;;;9.57;100.00
39141;BME280;24875;48.436;10.298;2022-11-04T06:57:52;95356.09;;;9.57;100.00
39141;BME280;24875;48.436;10.298;2022-11-04T07:00:18;95358.31;;;9.60;100.00
39141;BME280;24875;48.436;10.298;2022-11-04T07:02:45;95370.47;;;9.61;100.00
39141;BME280;24875;48.436;10.298;2022-11-04T07:05:12;95378.38;;;9.61;100.00
39141;BME280;24875;48.436;10.298;2022-11-04T07:07:40;95375.94;;;9.59;100.00
39141;BME280;24875;48.436;10.298;2022-11-04T07:10:07;95377.38;;;9.62;100.00
39141;BME280;24875;48.436;10.298;2022-11-04T07:12:34;95384.41;;;9.55;100.00
39141;BME280;24875;48.436;10.298;2022-11-04T07:15:01;95392.06;;;9.50;100.00
39141;BME280;24875;48.436;10.298;2022-11-04T07:17:27;95392.47;;;9.53;100.00
39141;BME280;24875;48.436;10.298;2022-11-04T07:19:54;95394.94;;;9.55;100.00
39141;BME280;24875;48.436;10.298;2022-11-04T07:22:20;95395.81;;;9.41;100.00
39141;BME280;24875;48.436;10.298;2022-11-04T07:24:48;95402.03;;;9.61;100.00
39141;BME280;24875;48.436;10.298;2022-11-04T07:27:14;95403.19;;;9.52;100.00
39141;BME280;24875;48.436;10.298;2022-11-04T07:29:41;95398.16;;;9.57;100.00
39141;BME280;24875;48.436;10.298;2022-11-04T07:32:07;95410.66;;;9.48;100.00
39141;BME280;24875;48.436;10.298;2022-11-04T07:34:34;95407.78;;;9.43;100.00
39141;BME280;24875;48.436;10.298;2022-11-04T07:37:01;95415.09;;;9.48;100.00
39141;BME280;24875;48.436;10.298;2022-11-04T07:39:27;95406.81;;;9.51;100.00
39141;BME280;24875;48.436;10.298;2022-11-04T07:41:55;95405.50;;;9.61;100.00
39141;BME280;24875;48.436;10.298;2022-11-04T07:44:22;95416.19;;;9.60;100.00
39141;BME280;24875;48.436;10.298;2022-11-04T07:46:49;95419.00;;;9.58;100.00
39141;BME280;24875;48.436;10.298;2022-11-04T07:49:15;95422.06;;;9.62;100.00
39141;BME280;24875;48.436;10.298;2022-11-04T07:51:42;95433.41;;;9.62;100.00
39141;BME280;24875;48.436;10.298;2022-11-04T07:54:08;95434.03;;;9.64;100.00
39141;BME280;24875;48.436;10.298;2022-11-04T07:56:35;95444.34;;;9.66;100.00
39141;BME280;24875;48.436;10.298;2022-11-04T07:59:05;95447.28;;;9.77;100.00
39141;BME280;24875;48.436;10.298;2022-11-04T08:01:32;95445.09;;;9.60;100.00
39141;BME280;24875;48.436;10.298;2022-11-04T08:03:58;95444.34;;;9.66;100.00
39141;BME280;24875;48.436;10.298;2022-11-04T08:06:25;95446.25;;;9.71;100.00
39141;BME280;24875;48.436;10.298;2022-11-04T08:08:52;95436.75;;;9.77;100.00
39141;BME280;24875;48.436;10.298;2022-11-04T08:11:20;95444.22;;;9.73;100.00
39141;BME280;24875;48.436;10.298;2022-11-04T08:13:49;95434.38;;;9.82;100.00
39141;BME280;24875;48.436;10.298;2022-11-04T08:16:18;95432.84;;;9.94;100.00
39141;BME280;24875;48.436;10.298;2022-11-04T08:18:46;95435.97;;;9.76;100.00
39141;BME280;24875;48.436;10.298;2022-11-04T08:21:14;95438.44;;;9.84;100.00
39141;BME280;24875;48.436;10.298;2022-11-04T08:23:41;95434.94;;;9.77;100.00
39141;BME280;24875;48.436;10.298;2022-11-04T08:26:09;95434.81;;;9.85;100.00
39141;BME280;24875;48.436;10.298;2022-11-04T08:28:37;95444.47;;;9.78;100.00
39141;BME280;24875;48.436;10.298;2022-11-04T08:31:06;95446.19;;;9.92;100.00
39141;BME280;24875;48.436;10.298;2022-11-04T08:33:35;95434.94;;;9.98;100.00
39141;BME280;24875;48.436;10.298;2022-11-04T08:36:04;95439.44;;;10.04;100.00
39141;BME280;24875;48.436;10.298;2022-11-04T08:38:31;95441.75;;;9.93;100.00
39141;BME280;24875;48.436;10.298;2022-11-04T08:40:59;95439.78;;;10.01;100.00
39141;BME280;24875;48.436;10.298;2022-11-04T08:43:26;95446.06;;;10.00;100.00
39141;BME280;24875;48.436;10.298;2022-11-04T08:45:53;95443.31;;;10.08;100.00
39141;BME280;24875;48.436;10.298;2022-11-04T08:48:20;95441.28;;;10.10;100.00
39141;BME280;24875;48.436;10.298;2022-11-04T08:50:49;95438.28;;;10.13;100.00
39141;BME280;24875;48.436;10.298;2022-11-04T08:53:16;95433.81;;;10.14;100.00
39141;BME280;24875;48.436;10.298;2022-11-04T08:55:43;95437.88;;;10.16;100.00
39141;BME280;24875;48.436;10.298;2022-11-04T08:58:10;95437.69;;;10.18;100.00
39141;BME280;24875;48.436;10.298;2022-11-04T09:00:37;95434.28;;;10.24;100.00
39141;BME280;24875;48.436;10.298;2022-11-04T09:03:03;95432.25;;;10.26;100.00
39141;BME280;24875;48.436;10.298;2022-11-04T09:05:30;95422.78;;;10.31;100.00
39141;BME280;24875;48.436;10.298;2022-11-04T09:07:59;95423.84;;;10.43;100.00
39141;BME280;24875;48.436;10.298;2022-11-04T09:10:26;95424.97;;;10.28;100.00
39141;BME280;24875;48.436;10.298;2022-11-04T09:12:53;95433.16;;;10.39;100.00
39141;BME280;24875;48.436;10.298;2022-11-04T09:15:19;95436.00;;;10.44;100.00
39141;BME280;24875;48.436;10.298;2022-11-04T09:17:46;95433.13;;;10.32;100.00
39141;BME280;24875;48.436;10.298;2022-11-04T09:20:12;95424.25;;;10.40;100.00
39141;BME280;24875;48.436;10.298;2022-11-04T09:22:39;95418.94;;;10.33;100.00
39141;BME280;24875;48.436;10.298;2022-11-04T09:25:08;95410.44;;;10.38;100.00
39141;BME280;24875;48.436;10.298;2022-11-04T09:27:34;95417.34;;;10.39;100.00
39141;BME280;24875;48.436;10.298;2022-11-04T09:30:01;95411.22;;;10.32;100.00
39141;BME280;24875;48.436;10.298;2022-11-04T09:32:27;95411.28;;;10.45;100.00
39141;BME280;24875;48.436;10.298;2022-11-04T09:34:54;95402.75;;;10.36;100.00
39141;BME280;24875;48.436;10.298;2022-11-04T09:37:20;95402.59;;;10.51;100.00
39141;BME280;24875;48.436;10.298;2022-11-04T09:39:47;95393.88;;;10.44;100.00
39141;BME280;24875;48.436;10.298;2022-11-04T09:42:27;95394.28;;;10.47;100.00
39141;BME280;24875;48.436;10.298;2022-11-04T09:45:00;95390.84;;;10.47;100.00
39141;BME280;24875;48.436;10.298;2022-11-04T09:47:29;95396.53;;;10.50;100.00
39141;BME280;24875;48.436;10.298;2022-11-04T09:49:58;95395.53;;;10.51;100.00
39141;BME280;24875;48.436;10.298;2022-11-04T09:52:28;95382.75;;;10.55;100.00
39141;BME280;24875;48.436;10.298;2022-11-04T09:55:00;95381.53;;;10.51;100.00
39141;BME280;24875;48.436;10.298;2022-11-04T09:57:31;95373.03;;;10.49;100.00
39141;BME280;24875;48.436;10.298;2022-11-04T09:59:58;95389.41;;;10.44;100.00
39141;BME280;24875;48.436;10.298;2022-11-04T10:02:49;95386.34;;;10.41;100.00
39141;BME280;24875;48.436;10.298;2022-11-04T10:05:32;95396.28;;;10.39;100.00
39141;BME280;24875;48.436;10.298;2022-11-04T10:08:33;95398.56;;;10.55;100.00
39141;BME280;24875;48.436;10.298;2022-11-04T10:11:07;95402.22;;;10.54;100.00
39141;BME280;24875;48.436;10.298;2022-11-04T10:13:48;95399.22;;;10.70;100.00
39141;BME280;24875;48.436;10.298;2022-11-04T10:16:31;95409.59;;;10.78;100.00
39141;BME280;24875;48.436;10.298;2022-11-04T10:19:10;95402.91;;;10.82;100.00
39141;BME280;24875;48.436;10.298;2022-11-04T10:21:46;95405.94;;;10.79;100.00
39141;BME280;24875;48.436;10.298;2022-11-04T10:24:21;95405.19;;;10.97;100.00
39141;BME280;24875;48.436;10.298;2022-11-04T10:26:53;95399.09;;;10.97;100.00
39141;BME280;24875;48.436;10.298;2022-11-04T10:29:27;95397.63;;;10.82;100.00
39141;BME280;24875;48.436;10.298;2022-11-04T10:31:56;95394.63;;;10.85;100.00
39141;BME280;24875;48.436;10.298;2022-11-04T10:34:29;95386.75;;;10.91;100.00
39141;BME280;24875;48.436;10.298;2022-11-04T10:36:57;95386.09;;;10.83;100.00
39141;BME280;24875;48.436;10.298;2022-11-04T10:39:30;95385.09;;;10.90;100.00
39141;BME280;24875;48.436;10.298;2022-11-04T10:41:57;95368.66;;;10.82;100.00
39141;BME280;24875;48.436;10.298;2022-11-04T10:44:27;95361.19;;;11.04;100.00
39141;BME280;24875;48.436;10.298;2022-11-04T10:47:03;95360.59;;;11.02;100.00
39141;BME280;24875;48.436;10.298;2022-11-04T10:49:42;95341.69;;;10.80;100.00
39141;BME280;24875;48.436;10.298;2022-11-04T10:52:10;95342.94;;;10.90;100.00
39141;BME280;24875;48.436;10.298;2022-11-04T10:54:39;95342.13;;;10.90;100.00
39141;BME280;24875;48.436;10.298;2022-11-04T10:57:06;95346.78;;;10.88;100.00
39141;BME280;24875;48.436;10.298;2022-11-04T10:59:45;95335.88;;;11.16;100.00
39141;BME280;24875;48.436;10.298;2022-11-04T11:02:12;95339.94;;;11.25;100.00
39141;BME280;24875;48.436;10.298;2022-11-04T11:04:39;95336.69;;;11.23;100.00
39141;BME280;24875;48.436;10.298;2022-11-04T11:07:07;95335.47;;;11.32;100.00
39141;BME280;24875;48.436;10.298;2022-11-04T11:09:36;95341.75;;;11.31;100.00
39141;BME280;24875;48.436;10.298;2022-11-04T11:12:18;95336.25;;;11.26;100.00
39141;BME280;24875;48.436;10.298;2022-11-04T11:14:49;95338.50;;;11.16;100.00
39141;BME280;24875;48.436;10.298;2022-11-04T11:17:19;95335.66;;;11.24;100.00
39141;BME280;24875;48.436;10.298;2022-11-04T11:19:49;95341.53;;;11.13;100.00
39141;BME280;24875;48.436;10.298;2022-11-04T11:22:40;95341.31;;;11.21;100.00
39141;BME280;24875;48.436;10.298;2022-11-04T11:25:20;95345.38;;;11.11;100.00
39141;BME280;24875;48.436;10.298;2022-11-04T11:27:49;95340.31;;;11.09;100.00
39141;BME280;24875;48.436;10.298;2022-11-04T11:30:26;95338.94;;;11.39;100.00
39141;BME280;24875;48.436;10.298;2022-11-04T11:32:58;95341.75;;;11.31;100.00
39141;BME280;24875;48.436;10.298;2022-11-04T11:35:29;95337.88;;;11.40;100.00
39141;BME280;24875;48.436;10.298;2022-11-04T11:37:57;95341.53;;;11.26;100.00
39141;BME280;24875;48.436;10.298;2022-11-04T11:40:28;95339.09;;;11.18;100.00
39141;BME280;24875;48.436;10.298;2022-11-04T11:42:56;95329.19;;;11.14;100.00
39141;BME280;24875;48.436;10.298;2022-11-04T11:45:25;95337.09;;;11.14;100.00
39141;BME280;24875;48.436;10.298;2022-11-04T11:47:53;95333.63;;;11.13;100.00
39141;BME280;24875;48.436;10.298;2022-11-04T11:50:23;95338.50;;;11.29;100.00
39141;BME280;24875;48.436;10.298;2022-11-04T11:53:10;95353.13;;;11.45;100.00
39141;BME280;24875;48.436;10.298;2022-11-04T11:55:42;95347.84;;;11.45;100.00
39141;BME280;24875;48.436;10.298;2022-11-04T11:58:16;95360.63;;;11.41;100.00
39141;BME280;24875;48.436;10.298;2022-11-04T12:00:49;95371.00;;;11.55;100.00
39141;BME280;24875;48.436;10.298;2022-11-04T12:03:18;95364.91;;;11.68;100.00
39141;BME280;24875;48.436;10.298;2022-11-04T12:05:55;95378.31;;;11.60;100.00
39141;BME280;24875;48.436;10.298;2022-11-04T12:08:37;95378.50;;;11.65;98.97
39141;BME280;24875;48.436;10.298;2022-11-04T12:11:13;95372.63;;;11.50;97.68
39141;BME280;24875;48.436;10.298;2022-11-04T12:13:45;95375.03;;;11.71;98.32
39141;BME280;24875;48.436;10.298;2022-11-04T12:16:23;95367.34;;;11.63;96.98
39141;BME280;24875;48.436;10.298;2022-11-04T12:19:09;95369.16;;;11.75;98.29
39141;BME280;24875;48.436;10.298;2022-11-04T12:21:40;95360.03;;;11.65;98.65
39141;BME280;24875;48.436;10.298;2022-11-04T12:24:20;95366.75;;;11.67;99.20
39141;BME280;24875;48.436;10.298;2022-11-04T12:26:55;95366.72;;;11.80;97.67
39141;BME280;24875;48.436;10.298;2022-11-04T12:29:41;95366.09;;;11.85;95.40
39141;BME280;24875;48.436;10.298;2022-11-04T12:32:20;95370.34;;;11.92;95.74
39141;BME280;24875;48.436;10.298;2022-11-04T12:35:02;95360.22;;;11.83;95.03
39141;BME280;24875;48.436;10.298;2022-11-04T12:37:42;95354.28;;;12.00;94.58
39141;BME280;24875;48.436;10.298;2022-11-04T12:40:18;95353.13;;;11.77;95.00
39141;BME280;24875;48.436;10.298;2022-11-04T12:43:05;95355.31;;;11.99;95.38
39141;BME280;24875;48.436;10.298;2022-11-04T12:45:44;95357.38;;;11.84;95.46
39141;BME280;24875;48.436;10.298;2022-11-04T12:48:33;95356.34;;;11.98;93.49
39141;BME280;24875;48.436;10.298;2022-11-04T12:51:07;95362.81;;;12.02;94.72
39141;BME280;24875;48.436;10.298;2022-11-04T12:53:51;95365.03;;;12.12;94.58
39141;BME280;24875;48.436;10.298;2022-11-04T12:56:26;95355.06;;;12.14;93.86
39141;BME280;24875;48.436;10.298;2022-11-04T12:59:32;95362.78;;;12.15;92.48
39141;BME280;24875;48.436;10.298;2022-11-04T13:02:13;95364.47;;;11.97;94.44
39141;BME280;24875;48.436;10.298;2022-11-04T13:04:48;95361.38;;;12.13;94.49
39141;BME280;24875;48.436;10.298;2022-11-04T13:07:21;95357.47;;;12.21;94.59